createdAt,value
2019-04-30T00:01:17.019Z,98395.00
2019-04-30T00:03:46.123Z,98396.00
2019-04-30T00:06:15.811Z,98399.00
2019-04-30T00:08:45.238Z,98391.00
2019-04-30T00:11:17.888Z,98389.00
2019-04-30T00:13:45.975Z,98393.00
2019-04-30T00:16:15.459Z,98390.00
2019-04-30T00:18:55.557Z,98384.00
2019-04-30T00:21:18.658Z,98390.00
2019-04-30T00:23:46.999Z,98387.00
2019-04-30T00:26:17.286Z,98384.00
2019-04-30T00:28:47.868Z,98377.00
2019-04-30T00:31:23.467Z,98389.00
2019-04-30T00:33:48.299Z,98381.00
2019-04-30T00:36:17.636Z,98392.00
2019-04-30T00:38:46.898Z,98389.00
2019-04-30T00:41:16.171Z,98390.00
2019-04-30T00:43:49.667Z,98390.00
2019-04-30T00:46:24.753Z,98391.00
2019-04-30T00:48:48.179Z,98395.00
2019-04-30T00:51:21.037Z,98397.00
2019-04-30T00:53:51.176Z,98381.00
2019-04-30T00:56:26.456Z,98380.00
2019-04-30T00:58:51.829Z,98376.00
2019-04-30T01:01:25.704Z,98386.00
2019-04-30T01:04:15.151Z,98378.00
2019-04-30T01:06:46.193Z,98383.00
2019-04-30T01:09:15.755Z,98377.00
2019-04-30T01:11:48.055Z,98377.00
2019-04-30T01:14:16.360Z,98383.00
2019-04-30T01:16:45.914Z,98369.00
2019-04-30T01:19:28.370Z,98367.00
2019-04-30T01:21:48.270Z,98369.00
2019-04-30T01:24:19.015Z,98360.00
2019-04-30T01:26:50.536Z,98362.00
2019-04-30T01:29:20.876Z,98367.00
2019-04-30T01:31:50.152Z,98358.00
2019-04-30T01:34:19.713Z,98362.00
2019-04-30T01:36:52.224Z,98367.00
2019-04-30T01:39:23.726Z,98360.00
2019-04-30T01:41:51.831Z,98356.00
2019-04-30T01:44:21.424Z,98353.00
2019-04-30T01:46:51.760Z,98349.00
2019-04-30T01:49:25.763Z,98341.00
2019-04-30T01:51:52.898Z,98348.00
2019-04-30T01:54:24.362Z,98349.00
2019-04-30T01:57:01.851Z,98345.00
2019-04-30T01:59:48.681Z,98336.00
2019-04-30T02:02:18.628Z,98345.00
2019-04-30T02:04:49.205Z,98345.00
2019-04-30T02:07:19.091Z,98338.00
2019-04-30T02:09:48.937Z,98340.00
2019-04-30T02:12:19.750Z,98345.00
2019-04-30T02:14:51.897Z,98341.00
2019-04-30T02:17:20.684Z,98345.00
2019-04-30T02:19:56.579Z,98343.00
2019-04-30T02:22:20.949Z,98340.00
2019-04-30T02:24:50.215Z,98348.00
2019-04-30T02:27:21.667Z,98346.00
2019-04-30T02:29:50.496Z,98344.00
2019-04-30T02:32:20.766Z,98349.00
2019-04-30T02:34:51.879Z,98346.00
2019-04-30T02:37:25.886Z,98354.00
2019-04-30T02:39:55.158Z,98348.00
2019-04-30T02:42:25.414Z,98352.00
2019-04-30T02:44:55.921Z,98352.00
2019-04-30T02:47:26.427Z,98346.00
2019-04-30T02:50:11.498Z,98341.00
2019-04-30T02:52:29.281Z,98340.00
2019-04-30T02:55:00.465Z,98349.00
2019-04-30T02:57:29.981Z,98345.00
2019-04-30T03:00:10.338Z,98343.00
2019-04-30T03:02:39.668Z,98346.00
2019-04-30T03:05:13.614Z,98347.00
2019-04-30T03:07:41.532Z,98335.00
2019-04-30T03:10:11.136Z,98331.00
2019-04-30T03:12:40.840Z,98333.00
2019-04-30T03:15:10.328Z,98335.00
2019-04-30T03:17:47.332Z,98330.00
2019-04-30T03:20:31.360Z,98332.00
2019-04-30T03:22:51.209Z,98327.00
2019-04-30T03:25:20.231Z,98322.00
2019-04-30T03:27:49.965Z,98324.00
2019-04-30T03:30:21.745Z,98321.00
2019-04-30T03:32:56.617Z,98321.00
2019-04-30T03:35:23.019Z,98325.00
2019-04-30T03:37:52.934Z,98318.00
2019-04-30T03:40:22.538Z,98325.00
2019-04-30T03:42:52.151Z,98318.00
2019-04-30T03:45:21.749Z,98317.00
2019-04-30T03:47:51.020Z,98321.00
2019-04-30T03:50:20.302Z,98319.00
2019-04-30T03:52:50.408Z,98322.00
2019-04-30T03:55:20.601Z,98329.00
2019-04-30T03:57:51.936Z,98326.00
2019-04-30T04:00:25.990Z,98325.00
2019-04-30T04:02:55.254Z,98331.00
2019-04-30T04:05:32.400Z,98320.00
2019-04-30T04:08:19.539Z,98324.00
2019-04-30T04:10:56.633Z,98326.00
2019-04-30T04:13:26.241Z,98326.00
2019-04-30T04:15:55.518Z,98329.00
2019-04-30T04:18:24.787Z,98326.00
2019-04-30T04:21:07.470Z,98336.00
2019-04-30T04:23:25.061Z,98335.00
2019-04-30T04:25:54.370Z,98329.00
2019-04-30T04:28:23.612Z,98338.00
2019-04-30T04:30:53.189Z,98339.00
2019-04-30T04:33:22.492Z,98341.00
2019-04-30T04:35:51.775Z,98344.00
2019-04-30T04:38:21.047Z,98335.00
2019-04-30T04:40:50.499Z,98342.00
2019-04-30T04:43:20.347Z,98340.00
2019-04-30T04:45:50.343Z,98341.00
2019-04-30T04:48:23.006Z,98334.00
2019-04-30T04:50:50.582Z,98337.00
2019-04-30T04:53:20.220Z,98345.00
2019-04-30T04:55:50.085Z,98342.00
2019-04-30T04:58:21.580Z,98343.00
2019-04-30T05:00:50.475Z,98343.00
2019-04-30T05:03:24.299Z,98343.00
2019-04-30T05:05:53.578Z,98345.00
2019-04-30T05:08:22.857Z,98350.00
2019-04-30T05:10:52.447Z,98355.00
2019-04-30T05:13:21.726Z,98353.00
2019-04-30T05:15:51.704Z,98353.00
2019-04-30T05:18:22.757Z,98355.00
2019-04-30T05:20:52.135Z,98358.00
2019-04-30T05:23:22.024Z,98353.00
2019-04-30T05:25:51.272Z,98362.00
2019-04-30T05:28:20.551Z,98361.00
2019-04-30T05:30:49.836Z,98360.00
2019-04-30T05:33:19.120Z,98368.00
2019-04-30T05:35:49.612Z,98358.00
2019-04-30T05:38:19.251Z,98366.00
2019-04-30T05:40:49.536Z,98365.00
2019-04-30T05:43:19.330Z,98361.00
2019-04-30T05:45:49.176Z,98363.00
2019-04-30T05:48:18.909Z,98370.00
2019-04-30T05:50:51.483Z,98371.00
2019-04-30T05:53:19.526Z,98367.00
2019-04-30T05:55:49.426Z,98376.00
2019-04-30T05:58:19.726Z,98375.00
2019-04-30T06:00:49.945Z,98375.00
2019-04-30T06:03:27.727Z,98375.00
2019-04-30T06:05:50.462Z,98375.00
2019-04-30T06:08:21.710Z,98369.00
2019-04-30T06:10:52.636Z,98373.00
2019-04-30T06:13:23.899Z,98374.00
2019-04-30T06:16:01.228Z,98379.00
2019-04-30T06:18:30.788Z,98383.00
2019-04-30T06:21:00.399Z,98380.00
2019-04-30T06:23:29.680Z,98375.00
2019-04-30T06:26:08.738Z,98367.00
2019-04-30T06:28:31.181Z,98372.00
2019-04-30T06:31:00.477Z,98374.00
2019-04-30T06:33:29.826Z,98374.00
2019-04-30T06:35:59.488Z,98371.00
2019-04-30T06:38:29.178Z,98374.00
2019-04-30T06:40:58.905Z,98378.00
2019-04-30T06:43:28.831Z,98377.00
2019-04-30T06:45:58.994Z,98381.00
2019-04-30T06:48:30.288Z,98377.00
2019-04-30T06:50:59.557Z,98380.00
2019-04-30T06:53:29.258Z,98380.00
2019-04-30T06:55:59.096Z,98379.00
2019-04-30T06:58:29.213Z,98383.00
2019-04-30T07:00:59.576Z,98390.00
2019-04-30T07:03:29.258Z,98388.00
2019-04-30T07:05:58.724Z,98397.00
2019-04-30T07:08:39.619Z,98387.00
2019-04-30T07:11:21.778Z,98406.00
2019-04-30T07:13:52.165Z,98407.00
2019-04-30T07:16:21.860Z,98403.00
2019-04-30T07:18:51.142Z,98413.00
2019-04-30T07:21:20.416Z,98405.00
2019-04-30T07:23:49.698Z,98413.00
2019-04-30T07:26:24.169Z,98418.00
2019-04-30T07:28:54.796Z,98410.00
2019-04-30T07:31:20.985Z,98410.00
2019-04-30T07:33:53.584Z,98414.00
2019-04-30T07:36:21.270Z,98407.00
2019-04-30T07:38:56.262Z,98417.00
2019-04-30T07:41:21.554Z,98418.00
2019-04-30T07:43:50.840Z,98412.00
2019-04-30T07:46:20.137Z,98426.00
2019-04-30T07:48:50.170Z,98416.00
2019-04-30T07:51:21.230Z,98421.00
2019-04-30T07:53:50.719Z,98422.00
2019-04-30T07:56:27.833Z,98416.00
2019-04-30T07:58:51.011Z,98428.00
2019-04-30T08:01:20.293Z,98425.00
2019-04-30T08:04:08.870Z,98429.00
2019-04-30T08:06:39.690Z,98419.00
2019-04-30T08:09:10.907Z,98423.00
2019-04-30T08:11:43.450Z,98424.00
2019-04-30T08:14:11.179Z,98431.00
2019-04-30T08:16:40.454Z,98435.00
2019-04-30T08:19:09.735Z,98433.00
2019-04-30T08:21:39.015Z,98438.00
2019-04-30T08:24:09.289Z,98433.00
2019-04-30T08:26:39.749Z,98428.00
2019-04-30T08:29:09.696Z,98436.00
2019-04-30T08:31:40.845Z,98441.00
2019-04-30T08:34:10.931Z,98447.00
2019-04-30T08:36:40.433Z,98454.00
2019-04-30T08:39:09.758Z,98448.00
2019-04-30T08:41:39.294Z,98444.00
2019-04-30T08:44:09.412Z,98449.00
2019-04-30T08:46:38.860Z,98441.00
2019-04-30T08:49:09.737Z,98441.00
2019-04-30T08:51:39.462Z,98446.00
2019-04-30T08:54:09.642Z,98447.00
2019-04-30T08:56:38.907Z,98444.00
2019-04-30T08:59:08.745Z,98438.00
2019-04-30T09:01:39.203Z,98441.00
2019-04-30T09:04:10.359Z,98440.00
2019-04-30T09:06:40.141Z,98444.00
2019-04-30T09:09:11.520Z,98454.00
2019-04-30T09:11:51.962Z,98448.00
2019-04-30T09:14:12.144Z,98453.00
2019-04-30T09:16:41.463Z,98445.00
2019-04-30T09:19:11.055Z,98458.00
2019-04-30T09:21:40.328Z,98456.00
2019-04-30T09:24:09.960Z,98457.00
2019-04-30T09:26:39.568Z,98460.00
2019-04-30T09:29:09.404Z,98461.00
2019-04-30T09:31:40.766Z,98458.00
2019-04-30T09:34:16.978Z,98460.00
2019-04-30T09:36:41.074Z,98461.00
2019-04-30T09:39:10.680Z,98461.00
2019-04-30T09:41:41.174Z,98459.00
2019-04-30T09:44:10.814Z,98453.00
2019-04-30T09:46:40.416Z,98457.00
2019-04-30T09:49:09.732Z,98450.00
2019-04-30T09:51:39.718Z,98444.00
2019-04-30T09:54:12.291Z,98451.00
2019-04-30T09:56:40.526Z,98455.00
2019-04-30T09:59:09.874Z,98444.00
2019-04-30T10:01:39.602Z,98443.00
2019-04-30T10:04:10.286Z,98437.00
2019-04-30T10:06:40.422Z,98435.00
2019-04-30T10:09:11.531Z,98432.00
2019-04-30T10:11:45.452Z,98434.00
2019-04-30T10:14:14.729Z,98425.00
2019-04-30T10:16:59.436Z,98428.00
2019-04-30T10:19:29.346Z,98429.00
2019-04-30T10:21:59.021Z,98439.00
2019-04-30T10:24:29.502Z,98426.00
2019-04-30T10:26:59.876Z,98409.00
2019-04-30T10:29:29.879Z,98422.00
2019-04-30T10:31:59.159Z,98421.00
2019-04-30T10:34:28.449Z,98421.00
2019-04-30T10:36:59.584Z,98416.00
2019-04-30T10:39:29.811Z,98402.00
2019-04-30T10:41:59.941Z,98397.00
2019-04-30T10:44:29.838Z,98399.00
2019-04-30T10:46:59.470Z,98398.00
2019-04-30T10:49:29.241Z,98403.00
2019-04-30T10:52:00.814Z,98393.00
2019-04-30T10:54:29.614Z,98404.00
2019-04-30T10:56:59.275Z,98401.00
2019-04-30T10:59:28.651Z,98407.00
2019-04-30T11:01:59.195Z,98416.00
2019-04-30T11:04:28.597Z,98407.00
2019-04-30T11:07:00.382Z,98409.00
2019-04-30T11:09:31.137Z,98404.00
2019-04-30T11:12:03.045Z,98400.00
2019-04-30T11:14:32.205Z,98396.00
2019-04-30T11:17:01.752Z,98400.00
2019-04-30T11:19:31.434Z,98396.00
2019-04-30T11:22:00.887Z,98397.00
2019-04-30T11:24:36.551Z,98388.00
2019-04-30T11:27:02.000Z,98387.00
2019-04-30T11:29:31.899Z,98393.00
2019-04-30T11:32:06.154Z,98387.00
2019-04-30T11:34:35.537Z,98388.00
2019-04-30T11:37:04.818Z,98388.00
2019-04-30T11:39:34.090Z,98379.00
2019-04-30T11:42:03.644Z,98380.00
2019-04-30T11:44:32.919Z,98379.00
2019-04-30T11:47:10.025Z,98373.00
2019-04-30T11:49:39.633Z,98375.00
2019-04-30T11:52:09.243Z,98381.00
2019-04-30T11:54:48.745Z,98378.00
2019-04-30T11:57:10.200Z,98392.00
2019-04-30T11:59:39.805Z,98374.00
2019-04-30T12:02:14.022Z,98374.00
2019-04-30T12:04:43.294Z,98370.00
2019-04-30T12:07:16.707Z,98361.00
2019-04-30T12:09:53.771Z,98358.00
2019-04-30T12:12:23.998Z,98373.00
2019-04-30T12:14:53.625Z,98365.00
2019-04-30T12:17:23.240Z,98367.00
2019-04-30T12:19:52.848Z,98363.00
2019-04-30T12:22:22.219Z,98371.00
2019-04-30T12:25:02.315Z,98366.00
2019-04-30T12:27:22.749Z,98360.00
2019-04-30T12:29:52.302Z,98354.00
2019-04-30T12:32:21.902Z,98351.00
2019-04-30T12:34:51.513Z,98348.00
2019-04-30T12:37:21.116Z,98351.00
2019-04-30T12:39:50.393Z,98348.00
2019-04-30T12:42:19.740Z,98349.00
2019-04-30T12:44:49.628Z,98354.00
2019-04-30T12:47:21.778Z,98348.00
2019-04-30T12:50:09.529Z,98352.00
2019-04-30T12:52:40.502Z,98348.00
2019-04-30T12:55:15.522Z,98340.00
2019-04-30T12:57:58.169Z,98337.00
2019-04-30T13:00:19.467Z,98341.00
2019-04-30T13:02:48.847Z,98337.00
2019-04-30T13:05:19.136Z,98341.00
2019-04-30T13:07:50.092Z,98341.00
2019-04-30T13:10:20.656Z,98343.00
2019-04-30T13:12:50.930Z,98334.00
2019-04-30T13:15:20.792Z,98325.00
2019-04-30T13:17:50.225Z,98322.00
2019-04-30T13:20:23.842Z,98323.00
2019-04-30T13:22:50.528Z,98332.00
2019-04-30T13:25:30.007Z,98322.00
2019-04-30T13:27:52.445Z,98313.00
2019-04-30T13:30:24.270Z,98317.00
2019-04-30T13:33:12.989Z,98320.00
2019-04-30T13:35:42.271Z,98315.00
2019-04-30T13:38:13.202Z,98312.00
2019-04-30T13:40:56.263Z,98312.00
2019-04-30T13:43:43.501Z,98311.00
2019-04-30T13:46:12.780Z,98312.00
2019-04-30T13:48:42.058Z,98315.00
2019-04-30T13:51:11.334Z,98314.00
2019-04-30T13:53:40.620Z,98312.00
2019-04-30T13:56:09.895Z,98301.00
2019-04-30T13:58:39.244Z,98302.00
2019-04-30T14:01:08.517Z,98302.00
2019-04-30T14:03:39.438Z,98296.00
2019-04-30T14:06:10.357Z,98294.00
2019-04-30T14:08:41.619Z,98297.00
2019-04-30T14:11:10.897Z,98302.00
2019-04-30T14:13:40.313Z,98300.00
2019-04-30T14:16:09.592Z,98301.00
2019-04-30T14:18:39.236Z,98301.00
2019-04-30T14:21:09.370Z,98308.00
2019-04-30T14:23:39.630Z,98295.00
2019-04-30T14:26:09.388Z,98298.00
2019-04-30T14:28:39.150Z,98293.00
2019-04-30T14:31:08.526Z,98298.00
2019-04-30T14:33:40.030Z,98300.00
2019-04-30T14:36:09.117Z,98298.00
2019-04-30T14:38:40.484Z,98297.00
2019-04-30T14:41:10.133Z,98294.00
2019-04-30T14:43:42.882Z,98297.00
2019-04-30T14:46:31.159Z,98298.00
2019-04-30T14:49:04.449Z,98290.00
2019-04-30T14:51:34.053Z,98293.00
2019-04-30T14:54:17.765Z,98294.00
2019-04-30T14:56:54.948Z,98299.00
2019-04-30T14:59:29.072Z,98306.00
2019-04-30T15:02:00.309Z,98294.00
2019-04-30T15:04:29.590Z,98294.00
2019-04-30T15:06:59.218Z,98289.00
2019-04-30T15:09:28.934Z,98292.00
2019-04-30T15:11:58.655Z,98289.00
2019-04-30T15:14:27.895Z,98288.00
2019-04-30T15:16:57.161Z,98284.00
2019-04-30T15:19:26.690Z,98283.00
2019-04-30T15:21:55.971Z,98279.00
2019-04-30T15:24:33.056Z,98273.00
2019-04-30T15:27:02.329Z,98270.00
2019-04-30T15:29:31.931Z,98274.00
2019-04-30T15:32:01.200Z,98272.00
2019-04-30T15:34:30.476Z,98274.00
2019-04-30T15:36:59.747Z,98278.00
2019-04-30T15:39:30.968Z,98264.00
2019-04-30T15:42:00.254Z,98275.00
2019-04-30T15:44:29.534Z,98271.00
2019-04-30T15:47:00.586Z,98272.00
2019-04-30T15:49:30.030Z,98279.00
2019-04-30T15:51:59.304Z,98268.00
2019-04-30T15:54:29.281Z,98269.00
2019-04-30T15:57:00.429Z,98269.00
2019-04-30T15:59:34.183Z,98267.00
2019-04-30T16:02:05.092Z,98262.00
2019-04-30T16:04:36.013Z,98271.00
2019-04-30T16:07:05.366Z,98266.00
2019-04-30T16:09:48.999Z,98267.00
2019-04-30T16:12:28.984Z,98269.00
2019-04-30T16:14:58.557Z,98265.00
2019-04-30T16:17:29.182Z,98267.00
2019-04-30T16:19:58.533Z,98262.00
2019-04-30T16:22:29.184Z,98261.00
2019-04-30T16:25:00.434Z,98270.00
2019-04-30T16:27:29.776Z,98264.00
2019-04-30T16:29:59.539Z,98262.00
2019-04-30T16:32:28.806Z,98263.00
2019-04-30T16:34:59.281Z,98260.00
2019-04-30T16:37:28.919Z,98260.00
2019-04-30T16:39:58.197Z,98258.00
2019-04-30T16:42:29.065Z,98262.00
2019-04-30T16:45:00.564Z,98266.00
2019-04-30T16:47:29.746Z,98257.00
2019-04-30T16:49:59.109Z,98262.00
2019-04-30T16:52:29.426Z,98265.00
2019-04-30T16:54:58.782Z,98255.00
2019-04-30T16:57:30.126Z,98256.00
2019-04-30T16:59:59.415Z,98257.00
2019-04-30T17:02:30.630Z,98253.00
2019-04-30T17:05:01.653Z,98255.00
2019-04-30T17:07:47.879Z,98252.00
2019-04-30T17:10:29.368Z,98252.00
2019-04-30T17:13:00.601Z,98251.00
2019-04-30T17:15:37.303Z,98252.00
2019-04-30T17:18:09.843Z,98250.00
2019-04-30T17:20:38.684Z,98243.00
2019-04-30T17:23:09.481Z,98248.00
2019-04-30T17:25:38.851Z,98247.00
2019-04-30T17:28:09.157Z,98246.00
2019-04-30T17:30:39.246Z,98242.00
2019-04-30T17:33:09.487Z,98234.00
2019-04-30T17:35:39.261Z,98241.00
2019-04-30T17:38:09.682Z,98235.00
2019-04-30T17:40:39.291Z,98236.00
2019-04-30T17:43:08.566Z,98235.00
2019-04-30T17:45:39.185Z,98242.00
2019-04-30T17:48:08.564Z,98229.00
2019-04-30T17:50:39.647Z,98234.00
2019-04-30T17:53:09.125Z,98234.00
2019-04-30T17:55:39.233Z,98233.00
2019-04-30T17:58:09.771Z,98229.00
2019-04-30T18:00:41.167Z,98233.00
2019-04-30T18:03:11.129Z,98233.00
2019-04-30T18:05:40.793Z,98226.00
2019-04-30T18:08:10.399Z,98233.00
2019-04-30T18:10:40.416Z,98231.00
2019-04-30T18:13:10.020Z,98235.00
2019-04-30T18:15:39.299Z,98243.00
2019-04-30T18:18:22.943Z,98249.00
2019-04-30T18:20:56.831Z,98249.00
2019-04-30T18:23:27.000Z,98253.00
2019-04-30T18:25:57.992Z,98245.00
2019-04-30T18:28:29.158Z,98248.00
2019-04-30T18:30:59.086Z,98263.00
2019-04-30T18:33:28.684Z,98259.00
2019-04-30T18:35:59.702Z,98260.00
2019-04-30T18:38:31.022Z,98261.00
2019-04-30T18:41:00.399Z,98259.00
2019-04-30T18:43:29.675Z,98258.00
2019-04-30T18:46:00.719Z,98254.00
2019-04-30T18:48:30.333Z,98251.00
2019-04-30T18:50:59.612Z,98245.00
2019-04-30T18:53:30.531Z,98258.00
2019-04-30T18:55:59.816Z,98260.00
2019-04-30T18:58:39.321Z,98257.00
2019-04-30T19:01:00.105Z,98250.00
2019-04-30T19:03:29.424Z,98263.00
2019-04-30T19:06:00.294Z,98268.00
2019-04-30T19:08:31.212Z,98267.00
2019-04-30T19:11:11.034Z,98267.00
2019-04-30T19:13:41.971Z,98270.00
2019-04-30T19:16:25.496Z,98282.00
2019-04-30T19:18:59.253Z,98268.00
2019-04-30T19:21:29.281Z,98283.00
2019-04-30T19:23:58.734Z,98283.00
2019-04-30T19:26:29.271Z,98287.00
2019-04-30T19:28:58.653Z,98290.00
2019-04-30T19:31:29.636Z,98286.00
2019-04-30T19:33:58.993Z,98285.00
2019-04-30T19:36:37.396Z,98292.00
2019-04-30T19:38:59.836Z,98292.00
2019-04-30T19:41:29.375Z,98290.00
2019-04-30T19:43:58.679Z,98296.00
2019-04-30T19:46:29.448Z,98303.00
2019-04-30T19:48:58.735Z,98298.00
2019-04-30T19:51:29.609Z,98293.00
2019-04-30T19:53:59.885Z,98302.00
2019-04-30T19:56:30.438Z,98302.00
2019-04-30T19:59:05.279Z,98303.00
2019-04-30T20:01:31.243Z,98311.00
2019-04-30T20:04:00.526Z,98303.00
2019-04-30T20:06:29.807Z,98302.00
2019-04-30T20:09:00.821Z,98303.00
2019-04-30T20:11:30.149Z,98311.00
2019-04-30T20:13:59.432Z,98306.00
2019-04-30T20:16:28.712Z,98311.00
2019-04-30T20:18:59.184Z,98309.00
2019-04-30T20:21:39.654Z,98296.00
2019-04-30T20:23:59.579Z,98297.00
2019-04-30T20:26:28.862Z,98300.00
2019-04-30T20:28:59.022Z,98302.00
2019-04-30T20:31:28.837Z,98301.00
2019-04-30T20:33:59.402Z,98302.00
2019-04-30T20:36:29.176Z,98297.00
2019-04-30T20:39:00.093Z,98295.00
2019-04-30T20:41:31.012Z,98299.00
2019-04-30T20:44:00.318Z,98299.00
2019-04-30T20:46:34.855Z,98297.00
2019-04-30T20:49:00.599Z,98296.00
2019-04-30T20:51:29.874Z,98294.00
2019-04-30T20:53:59.319Z,98296.00
2019-04-30T20:56:29.193Z,98293.00
2019-04-30T20:59:04.097Z,98289.00
2019-04-30T21:01:30.035Z,98298.00
2019-04-30T21:03:59.637Z,98283.00
2019-04-30T21:06:29.734Z,98282.00
2019-04-30T21:08:59.466Z,98282.00
2019-04-30T21:11:29.080Z,98279.00
2019-04-30T21:13:59.082Z,98275.00
2019-04-30T21:16:28.801Z,98275.00
2019-04-30T21:18:58.081Z,98279.00
2019-04-30T21:21:28.721Z,98272.00
2019-04-30T21:23:58.120Z,98287.00
2019-04-30T21:26:27.737Z,98272.00
2019-04-30T21:29:10.460Z,98275.00
2019-04-30T21:31:45.219Z,98270.00
2019-04-30T21:34:19.631Z,98281.00
2019-04-30T21:36:49.655Z,98284.00
2019-04-30T21:39:20.108Z,98283.00
2019-04-30T21:41:49.759Z,98283.00
2019-04-30T21:44:19.365Z,98288.00
2019-04-30T21:46:48.656Z,98274.00
2019-04-30T21:49:17.935Z,98285.00
2019-04-30T21:51:47.475Z,98281.00
2019-04-30T21:54:17.089Z,98282.00
2019-04-30T21:56:46.691Z,98279.00
2019-04-30T21:59:24.106Z,98288.00
2019-04-30T22:01:47.051Z,98289.00
2019-04-30T22:04:17.158Z,98279.00
2019-04-30T22:06:46.584Z,98281.00
2019-04-30T22:09:17.187Z,98285.00
2019-04-30T22:11:46.465Z,98292.00
2019-04-30T22:14:16.321Z,98289.00
2019-04-30T22:16:45.849Z,98287.00
2019-04-30T22:19:15.432Z,98288.00
2019-04-30T22:21:44.849Z,98289.00
2019-04-30T22:24:14.127Z,98272.00
2019-04-30T22:26:43.724Z,98282.00
2019-04-30T22:29:13.330Z,98283.00
2019-04-30T22:31:42.675Z,98281.00
2019-04-30T22:34:12.029Z,98285.00
2019-04-30T22:36:42.950Z,98288.00
2019-04-30T22:39:20.136Z,98283.00
2019-04-30T22:41:49.374Z,98279.00
2019-04-30T22:44:18.643Z,98280.00
2019-04-30T22:46:49.253Z,98285.00
2019-04-30T22:49:18.669Z,98285.00
2019-04-30T22:51:47.945Z,98280.00
2019-04-30T22:54:17.225Z,98281.00
2019-04-30T22:56:46.744Z,98280.00
2019-04-30T22:59:16.018Z,98273.00
2019-04-30T23:01:49.657Z,98280.00
2019-04-30T23:04:20.571Z,98281.00
2019-04-30T23:06:49.843Z,98279.00
2019-04-30T23:09:19.197Z,98282.00
2019-04-30T23:11:48.479Z,98279.00
2019-04-30T23:14:17.827Z,98285.00
2019-04-30T23:16:47.097Z,98273.00
2019-04-30T23:19:16.367Z,98272.00
2019-04-30T23:21:45.640Z,98271.00
2019-04-30T23:24:14.913Z,98267.00
2019-04-30T23:26:44.190Z,98262.00
2019-04-30T23:29:13.455Z,98265.00
2019-04-30T23:31:42.730Z,98259.00
2019-04-30T23:34:18.035Z,98263.00
2019-04-30T23:36:42.999Z,98261.00
2019-04-30T23:39:12.703Z,98249.00
2019-04-30T23:41:41.980Z,98258.00
2019-04-30T23:44:11.257Z,98257.00
2019-04-30T23:46:40.530Z,98249.00
2019-04-30T23:49:09.805Z,98248.00
2019-04-30T23:51:39.080Z,98250.00
2019-04-30T23:54:08.361Z,98256.00
2019-04-30T23:56:37.641Z,98243.00
2019-04-30T23:59:06.938Z,98251.00
